sensor_id;sensor_type;location;lat;lon;timestamp;temperature;humidity
2945;DHT22;1482;51.398;7.128;2023-03-14T00:00:10;10.90;99.90
2945;DHT22;1482;51.398;7.128;2023-03-14T00:02:37;10.90;99.90
2945;DHT22;1482;51.398;7.128;2023-03-14T00:05:03;10.90;99.90
2945;DHT22;1482;51.398;7.128;2023-03-14T00:07:33;10.80;99.90
2945;DHT22;1482;51.398;7.128;2023-03-14T00:10:05;10.90;99.90
2945;DHT22;1482;51.398;7.128;2023-03-14T00:12:32;10.90;99.90
2945;DHT22;1482;51.398;7.128;2023-03-14T00:14:58;10.90;99.90
2945;DHT22;1482;51.398;7.128;2023-03-14T00:17:26;10.90;99.90
2945;DHT22;1482;51.398;7.128;2023-03-14T00:19:52;10.90;99.90
2945;DHT22;1482;51.398;7.128;2023-03-14T00:22:19;10.80;99.90
2945;DHT22;1482;51.398;7.128;2023-03-14T00:24:45;10.90;99.90
2945;DHT22;1482;51.398;7.128;2023-03-14T00:27:10;10.80;99.90
2945;DHT22;1482;51.398;7.128;2023-03-14T00:29:36;10.90;99.90
2945;DHT22;1482;51.398;7.128;2023-03-14T00:32:01;10.80;99.90
2945;DHT22;1482;51.398;7.128;2023-03-14T00:34:30;10.80;99.90
2945;DHT22;1482;51.398;7.128;2023-03-14T00:36:56;10.80;99.90
2945;DHT22;1482;51.398;7.128;2023-03-14T00:39:22;10.90;99.90
2945;DHT22;1482;51.398;7.128;2023-03-14T00:41:48;10.90;99.90
2945;DHT22;1482;51.398;7.128;2023-03-14T00:44:13;10.90;99.90
2945;DHT22;1482;51.398;7.128;2023-03-14T00:46:39;11.00;99.90
2945;DHT22;1482;51.398;7.128;2023-03-14T00:49:04;11.00;99.90
2945;DHT22;1482;51.398;7.128;2023-03-14T00:51:30;11.00;99.90
2945;DHT22;1482;51.398;7.128;2023-03-14T00:53:56;11.00;99.90
2945;DHT22;1482;51.398;7.128;2023-03-14T00:56:21;11.10;99.90
2945;DHT22;1482;51.398;7.128;2023-03-14T00:58:47;11.10;99.90
2945;DHT22;1482;51.398;7.128;2023-03-14T01:01:15;11.00;99.90
2945;DHT22;1482;51.398;7.128;2023-03-14T01:03:41;11.00;1.00
2945;DHT22;1482;51.398;7.128;2023-03-14T01:06:22;11.00;1.00
2945;DHT22;1482;51.398;7.128;2023-03-14T01:08:47;10.40;99.90
2945;DHT22;1482;51.398;7.128;2023-03-14T01:11:25;10.20;1.00
2945;DHT22;1482;51.398;7.128;2023-03-14T01:13:52;10.10;1.00
2945;DHT22;1482;51.398;7.128;2023-03-14T01:16:19;9.80;99.90
2945;DHT22;1482;51.398;7.128;2023-03-14T01:18:47;9.80;99.90
2945;DHT22;1482;51.398;7.128;2023-03-14T01:21:19;9.70;1.00
2945;DHT22;1482;51.398;7.128;2023-03-14T01:23:45;9.70;99.90
2945;DHT22;1482;51.398;7.128;2023-03-14T01:26:13;9.50;1.00
2945;DHT22;1482;51.398;7.128;2023-03-14T01:28:39;9.60;5.30
2945;DHT22;1482;51.398;7.128;2023-03-14T01:31:07;9.50;99.90
2945;DHT22;1482;51.398;7.128;2023-03-14T01:33:33;9.50;1.00
2945;DHT22;1482;51.398;7.128;2023-03-14T01:35:59;9.40;28.00
2945;DHT22;1482;51.398;7.128;2023-03-14T01:38:28;9.50;11.00
2945;DHT22;1482;51.398;7.128;2023-03-14T01:40:53;9.40;99.90
2945;DHT22;1482;51.398;7.128;2023-03-14T01:43:20;9.40;1.00
2945;DHT22;1482;51.398;7.128;2023-03-14T01:48:37;9.20;99.90
2945;DHT22;1482;51.398;7.128;2023-03-14T01:51:07;9.20;1.30
2945;DHT22;1482;51.398;7.128;2023-03-14T01:53:35;9.30;1.00
2945;DHT22;1482;51.398;7.128;2023-03-14T01:56:01;9.30;99.90
2945;DHT22;1482;51.398;7.128;2023-03-14T01:58:30;9.30;1.00
2945;DHT22;1482;51.398;7.128;2023-03-14T02:00:58;9.30;99.90
2945;DHT22;1482;51.398;7.128;2023-03-14T02:03:24;9.20;99.90
2945;DHT22;1482;51.398;7.128;2023-03-14T02:05:55;9.20;1.00
2945;DHT22;1482;51.398;7.128;2023-03-14T02:08:23;9.20;1.00
2945;DHT22;1482;51.398;7.128;2023-03-14T02:10:50;9.20;1.00
2945;DHT22;1482;51.398;7.128;2023-03-14T02:13:17;9.20;9.30
2945;DHT22;1482;51.398;7.128;2023-03-14T02:15:44;9.30;99.90
2945;DHT22;1482;51.398;7.128;2023-03-14T02:18:10;9.20;10.30
2945;DHT22;1482;51.398;7.128;2023-03-14T02:26:03;9.30;86.60
2945;DHT22;1482;51.398;7.128;2023-03-14T02:28:31;9.30;1.00
2945;DHT22;1482;51.398;7.128;2023-03-14T02:30:56;9.40;1.00
2945;DHT22;1482;51.398;7.128;2023-03-14T02:33:23;9.40;99.90
2945;DHT22;1482;51.398;7.128;2023-03-14T02:38:29;9.30;99.90
2945;DHT22;1482;51.398;7.128;2023-03-14T02:40:56;9.40;1.00
2945;DHT22;1482;51.398;7.128;2023-03-14T02:43:22;9.40;99.90
2945;DHT22;1482;51.398;7.128;2023-03-14T02:45:49;9.40;1.00
2945;DHT22;1482;51.398;7.128;2023-03-14T02:50:51;9.40;1.00
2945;DHT22;1482;51.398;7.128;2023-03-14T02:53:20;9.40;1.00
2945;DHT22;1482;51.398;7.128;2023-03-14T02:55:48;9.40;1.00
2945;DHT22;1482;51.398;7.128;2023-03-14T02:58:13;9.40;99.90
2945;DHT22;1482;51.398;7.128;2023-03-14T03:00:39;9.40;99.90
2945;DHT22;1482;51.398;7.128;2023-03-14T03:03:04;9.40;99.90
2945;DHT22;1482;51.398;7.128;2023-03-14T03:05:31;9.30;99.90
2945;DHT22;1482;51.398;7.128;2023-03-14T03:07:57;9.30;99.90
2945;DHT22;1482;51.398;7.128;2023-03-14T03:10:23;9.40;99.90
2945;DHT22;1482;51.398;7.128;2023-03-14T03:12:49;9.30;99.90
2945;DHT22;1482;51.398;7.128;2023-03-14T03:15:15;9.30;99.90
2945;DHT22;1482;51.398;7.128;2023-03-14T03:17:40;9.30;99.90
2945;DHT22;1482;51.398;7.128;2023-03-14T03:20:07;9.30;99.90
2945;DHT22;1482;51.398;7.128;2023-03-14T03:22:35;9.40;15.90
2945;DHT22;1482;51.398;7.128;2023-03-14T03:25:01;9.40;1.00
2945;DHT22;1482;51.398;7.128;2023-03-14T03:27:26;9.40;1.00
2945;DHT22;1482;51.398;7.128;2023-03-14T03:29:54;9.40;1.00
2945;DHT22;1482;51.398;7.128;2023-03-14T03:32:19;9.30;1.00
2945;DHT22;1482;51.398;7.128;2023-03-14T03:34:45;9.30;1.00
2945;DHT22;1482;51.398;7.128;2023-03-14T03:37:11;9.30;1.00
2945;DHT22;1482;51.398;7.128;2023-03-14T03:39:36;9.40;1.00
2945;DHT22;1482;51.398;7.128;2023-03-14T03:42:02;9.30;1.00
2945;DHT22;1482;51.398;7.128;2023-03-14T03:44:27;9.30;1.00
2945;DHT22;1482;51.398;7.128;2023-03-14T03:46:53;9.30;99.90
2945;DHT22;1482;51.398;7.128;2023-03-14T03:49:18;9.30;99.90
2945;DHT22;1482;51.398;7.128;2023-03-14T03:51:44;9.30;99.90
2945;DHT22;1482;51.398;7.128;2023-03-14T03:54:09;9.20;1.00
2945;DHT22;1482;51.398;7.128;2023-03-14T03:56:35;9.20;1.00
2945;DHT22;1482;51.398;7.128;2023-03-14T03:59:03;9.10;99.90
2945;DHT22;1482;51.398;7.128;2023-03-14T04:01:29;9.10;1.00
2945;DHT22;1482;51.398;7.128;2023-03-14T04:03:54;9.10;99.90
2945;DHT22;1482;51.398;7.128;2023-03-14T04:06:20;9.10;37.50
2945;DHT22;1482;51.398;7.128;2023-03-14T04:08:46;9.10;99.90
2945;DHT22;1482;51.398;7.128;2023-03-14T04:11:11;9.10;1.00
2945;DHT22;1482;51.398;7.128;2023-03-14T04:13:37;9.10;99.90
2945;DHT22;1482;51.398;7.128;2023-03-14T04:16:02;9.10;99.90
2945;DHT22;1482;51.398;7.128;2023-03-14T04:18:28;9.10;1.00
2945;DHT22;1482;51.398;7.128;2023-03-14T04:20:56;9.10;99.90
2945;DHT22;1482;51.398;7.128;2023-03-14T04:23:23;9.00;12.90
2945;DHT22;1482;51.398;7.128;2023-03-14T04:25:50;9.00;99.90
2945;DHT22;1482;51.398;7.128;2023-03-14T04:28:16;9.00;88.70
2945;DHT22;1482;51.398;7.128;2023-03-14T04:30:41;9.00;99.90
2945;DHT22;1482;51.398;7.128;2023-03-14T04:33:07;9.00;1.00
2945;DHT22;1482;51.398;7.128;2023-03-14T04:35:33;9.00;99.90
2945;DHT22;1482;51.398;7.128;2023-03-14T04:38:01;9.00;99.90
2945;DHT22;1482;51.398;7.128;2023-03-14T04:40:28;9.10;1.00
2945;DHT22;1482;51.398;7.128;2023-03-14T04:42:53;9.10;1.00
2945;DHT22;1482;51.398;7.128;2023-03-14T04:45:19;9.20;1.00
2945;DHT22;1482;51.398;7.128;2023-03-14T04:47:44;9.30;1.00
2945;DHT22;1482;51.398;7.128;2023-03-14T04:50:10;9.40;1.00
2945;DHT22;1482;51.398;7.128;2023-03-14T04:52:36;9.50;99.90
2945;DHT22;1482;51.398;7.128;2023-03-14T04:55:01;9.60;99.90
2945;DHT22;1482;51.398;7.128;2023-03-14T04:57:27;9.80;99.90
2945;DHT22;1482;51.398;7.128;2023-03-14T04:59:52;9.90;99.90
2945;DHT22;1482;51.398;7.128;2023-03-14T05:02:18;9.90;99.90
2945;DHT22;1482;51.398;7.128;2023-03-14T05:04:44;9.80;1.00
2945;DHT22;1482;51.398;7.128;2023-03-14T05:07:09;9.90;1.00
2945;DHT22;1482;51.398;7.128;2023-03-14T05:09:35;10.00;1.00
2945;DHT22;1482;51.398;7.128;2023-03-14T05:12:00;9.80;99.90
2945;DHT22;1482;51.398;7.128;2023-03-14T05:14:26;9.90;99.90
2945;DHT22;1482;51.398;7.128;2023-03-14T05:16:51;9.80;99.90
2945;DHT22;1482;51.398;7.128;2023-03-14T05:19:17;9.80;99.90
2945;DHT22;1482;51.398;7.128;2023-03-14T05:21:43;9.90;99.90
2945;DHT22;1482;51.398;7.128;2023-03-14T05:24:08;9.80;99.90
2945;DHT22;1482;51.398;7.128;2023-03-14T05:26:34;9.80;99.90
2945;DHT22;1482;51.398;7.128;2023-03-14T05:28:59;9.80;99.90
2945;DHT22;1482;51.398;7.128;2023-03-14T05:31:25;9.60;99.90
2945;DHT22;1482;51.398;7.128;2023-03-14T05:33:50;9.40;99.90
2945;DHT22;1482;51.398;7.128;2023-03-14T05:36:16;9.20;1.00
2945;DHT22;1482;51.398;7.128;2023-03-14T05:38:41;9.20;1.00
2945;DHT22;1482;51.398;7.128;2023-03-14T05:41:07;9.00;99.90
2945;DHT22;1482;51.398;7.128;2023-03-14T05:43:33;9.10;1.00
2945;DHT22;1482;51.398;7.128;2023-03-14T05:45:58;9.10;1.00
2945;DHT22;1482;51.398;7.128;2023-03-14T05:48:24;9.10;1.00
2945;DHT22;1482;51.398;7.128;2023-03-14T05:50:55;9.00;99.90
2945;DHT22;1482;51.398;7.128;2023-03-14T05:53:20;9.00;1.00
2945;DHT22;1482;51.398;7.128;2023-03-14T05:55:46;8.90;1.00
2945;DHT22;1482;51.398;7.128;2023-03-14T05:58:12;9.00;39.10
2945;DHT22;1482;51.398;7.128;2023-03-14T06:00:37;9.00;64.60
2945;DHT22;1482;51.398;7.128;2023-03-14T06:03:03;9.00;12.00
2945;DHT22;1482;51.398;7.128;2023-03-14T06:05:28;9.00;34.30
2945;DHT22;1482;51.398;7.128;2023-03-14T06:07:54;9.10;37.20
2945;DHT22;1482;51.398;7.128;2023-03-14T06:10:20;9.00;99.90
2945;DHT22;1482;51.398;7.128;2023-03-14T06:12:45;9.10;99.90
2945;DHT22;1482;51.398;7.128;2023-03-14T06:15:11;9.10;99.90
2945;DHT22;1482;51.398;7.128;2023-03-14T06:17:36;9.30;99.50
2945;DHT22;1482;51.398;7.128;2023-03-14T06:20:02;9.30;1.00
2945;DHT22;1482;51.398;7.128;2023-03-14T06:22:28;9.30;1.00
2945;DHT22;1482;51.398;7.128;2023-03-14T06:24:53;9.20;1.00
2945;DHT22;1482;51.398;7.128;2023-03-14T06:27:19;9.30;1.00
2945;DHT22;1482;51.398;7.128;2023-03-14T06:29:44;9.20;1.00
2945;DHT22;1482;51.398;7.128;2023-03-14T06:32:10;9.30;1.00
2945;DHT22;1482;51.398;7.128;2023-03-14T06:34:35;9.10;1.00
2945;DHT22;1482;51.398;7.128;2023-03-14T06:37:01;9.00;8.90
2945;DHT22;1482;51.398;7.128;2023-03-14T06:39:27;9.20;99.90
2945;DHT22;1482;51.398;7.128;2023-03-14T06:41:52;9.20;52.80
2945;DHT22;1482;51.398;7.128;2023-03-14T06:44:18;9.30;13.20
2945;DHT22;1482;51.398;7.128;2023-03-14T06:46:43;9.30;1.00
2945;DHT22;1482;51.398;7.128;2023-03-14T06:49:09;9.30;1.00
2945;DHT22;1482;51.398;7.128;2023-03-14T06:51:34;9.30;1.00
2945;DHT22;1482;51.398;7.128;2023-03-14T06:54:00;9.40;1.00
2945;DHT22;1482;51.398;7.128;2023-03-14T06:56:25;9.40;1.00
2945;DHT22;1482;51.398;7.128;2023-03-14T06:58:51;9.60;1.00
2945;DHT22;1482;51.398;7.128;2023-03-14T07:01:27;9.60;99.90
2945;DHT22;1482;51.398;7.128;2023-03-14T07:03:53;9.70;99.90
2945;DHT22;1482;51.398;7.128;2023-03-14T07:06:19;9.60;1.00
2945;DHT22;1482;51.398;7.128;2023-03-14T07:08:45;9.60;1.00
2945;DHT22;1482;51.398;7.128;2023-03-14T07:11:10;9.70;99.90
2945;DHT22;1482;51.398;7.128;2023-03-14T07:13:37;9.70;1.00
2945;DHT22;1482;51.398;7.128;2023-03-14T07:16:04;9.60;1.00
2945;DHT22;1482;51.398;7.128;2023-03-14T07:18:30;9.60;99.90
2945;DHT22;1482;51.398;7.128;2023-03-14T07:20:55;9.50;99.90
2945;DHT22;1482;51.398;7.128;2023-03-14T07:23:21;9.60;42.90
2945;DHT22;1482;51.398;7.128;2023-03-14T07:25:46;9.70;1.00
2945;DHT22;1482;51.398;7.128;2023-03-14T07:28:12;9.80;1.00
2945;DHT22;1482;51.398;7.128;2023-03-14T07:30:38;9.80;1.00
2945;DHT22;1482;51.398;7.128;2023-03-14T07:33:03;9.80;70.50
2945;DHT22;1482;51.398;7.128;2023-03-14T07:35:29;9.90;1.00
2945;DHT22;1482;51.398;7.128;2023-03-14T07:37:54;9.90;99.90
2945;DHT22;1482;51.398;7.128;2023-03-14T07:40:21;10.00;1.00
2945;DHT22;1482;51.398;7.128;2023-03-14T07:42:46;10.10;1.00
2945;DHT22;1482;51.398;7.128;2023-03-14T07:45:12;10.10;99.90
2945;DHT22;1482;51.398;7.128;2023-03-14T07:47:38;9.90;99.90
2945;DHT22;1482;51.398;7.128;2023-03-14T07:50:04;10.00;99.90
2945;DHT22;1482;51.398;7.128;2023-03-14T07:52:30;10.10;99.90
2945;DHT22;1482;51.398;7.128;2023-03-14T07:54:56;10.10;1.00
2945;DHT22;1482;51.398;7.128;2023-03-14T07:57:22;10.20;1.30
2945;DHT22;1482;51.398;7.128;2023-03-14T07:59:47;10.20;99.90
2945;DHT22;1482;51.398;7.128;2023-03-14T08:02:13;10.20;1.00
2945;DHT22;1482;51.398;7.128;2023-03-14T08:04:39;10.20;1.00
2945;DHT22;1482;51.398;7.128;2023-03-14T08:07:05;10.20;28.60
2945;DHT22;1482;51.398;7.128;2023-03-14T08:09:30;10.20;99.90
2945;DHT22;1482;51.398;7.128;2023-03-14T08:11:56;10.20;1.00
2945;DHT22;1482;51.398;7.128;2023-03-14T08:14:22;10.30;1.00
2945;DHT22;1482;51.398;7.128;2023-03-14T08:16:50;10.40;99.90
2945;DHT22;1482;51.398;7.128;2023-03-14T08:19:15;10.40;99.90
2945;DHT22;1482;51.398;7.128;2023-03-14T08:21:41;10.40;99.90
2945;DHT22;1482;51.398;7.128;2023-03-14T08:24:06;10.30;1.00
2945;DHT22;1482;51.398;7.128;2023-03-14T08:26:32;10.40;1.00
2945;DHT22;1482;51.398;7.128;2023-03-14T08:28:58;10.50;84.50
2945;DHT22;1482;51.398;7.128;2023-03-14T08:31:23;10.50;99.90
2945;DHT22;1482;51.398;7.128;2023-03-14T08:33:49;10.50;1.00
2945;DHT22;1482;51.398;7.128;2023-03-14T08:36:17;10.60;99.90
2945;DHT22;1482;51.398;7.128;2023-03-14T08:38:43;10.80;99.90
2945;DHT22;1482;51.398;7.128;2023-03-14T08:41:09;10.90;1.00
2945;DHT22;1482;51.398;7.128;2023-03-14T08:43:34;11.00;1.00
2945;DHT22;1482;51.398;7.128;2023-03-14T08:46:00;11.10;99.90
2945;DHT22;1482;51.398;7.128;2023-03-14T08:48:26;11.20;68.40
2945;DHT22;1482;51.398;7.128;2023-03-14T08:50:52;11.20;1.00
2945;DHT22;1482;51.398;7.128;2023-03-14T08:53:18;11.20;1.00
2945;DHT22;1482;51.398;7.128;2023-03-14T08:55:46;11.20;99.90
2945;DHT22;1482;51.398;7.128;2023-03-14T08:58:11;11.20;99.90
2945;DHT22;1482;51.398;7.128;2023-03-14T09:00:37;11.30;99.90
2945;DHT22;1482;51.398;7.128;2023-03-14T09:03:03;11.30;99.90
2945;DHT22;1482;51.398;7.128;2023-03-14T09:05:29;11.40;99.90
2945;DHT22;1482;51.398;7.128;2023-03-14T09:07:57;11.50;99.90
2945;DHT22;1482;51.398;7.128;2023-03-14T09:10:23;11.20;99.90
2945;DHT22;1482;51.398;7.128;2023-03-14T09:12:48;11.20;99.90
2945;DHT22;1482;51.398;7.128;2023-03-14T09:15:14;11.10;1.00
2945;DHT22;1482;51.398;7.128;2023-03-14T09:17:39;11.10;99.90
2945;DHT22;1482;51.398;7.128;2023-03-14T09:20:05;11.10;1.00
2945;DHT22;1482;51.398;7.128;2023-03-14T09:22:34;11.00;99.90
2945;DHT22;1482;51.398;7.128;2023-03-14T09:25:01;11.20;1.00
2945;DHT22;1482;51.398;7.128;2023-03-14T09:27:27;11.10;99.90
2945;DHT22;1482;51.398;7.128;2023-03-14T09:29:52;11.30;35.30
2945;DHT22;1482;51.398;7.128;2023-03-14T09:32:18;11.30;1.00
2945;DHT22;1482;51.398;7.128;2023-03-14T09:34:44;11.30;99.90
2945;DHT22;1482;51.398;7.128;2023-03-14T09:37:09;11.20;99.90
2945;DHT22;1482;51.398;7.128;2023-03-14T09:39:35;11.20;1.00
2945;DHT22;1482;51.398;7.128;2023-03-14T09:42:04;11.00;99.90
2945;DHT22;1482;51.398;7.128;2023-03-14T09:44:37;10.90;1.00
2945;DHT22;1482;51.398;7.128;2023-03-14T09:47:06;10.80;1.00
2945;DHT22;1482;51.398;7.128;2023-03-14T09:49:35;10.60;99.90
2945;DHT22;1482;51.398;7.128;2023-03-14T09:57:25;10.10;99.90
2945;DHT22;1482;51.398;7.128;2023-03-14T09:59:54;10.20;99.90
2945;DHT22;1482;51.398;7.128;2023-03-14T10:02:31;9.80;1.00
2945;DHT22;1482;51.398;7.128;2023-03-14T10:04:58;9.70;1.00
2945;DHT22;1482;51.398;7.128;2023-03-14T10:07:29;9.60;1.00
2945;DHT22;1482;51.398;7.128;2023-03-14T10:09:56;9.60;1.00
2945;DHT22;1482;51.398;7.128;2023-03-14T10:12:36;9.50;1.00
2945;DHT22;1482;51.398;7.128;2023-03-14T10:15:07;9.50;1.00
2945;DHT22;1482;51.398;7.128;2023-03-14T10:17:44;9.20;1.00
2945;DHT22;1482;51.398;7.128;2023-03-14T10:20:37;9.10;1.00
2945;DHT22;1482;51.398;7.128;2023-03-14T10:23:06;9.00;1.00
2945;DHT22;1482;51.398;7.128;2023-03-14T10:25:35;8.90;1.00
2945;DHT22;1482;51.398;7.128;2023-03-14T10:28:02;8.90;1.00
2945;DHT22;1482;51.398;7.128;2023-03-14T10:30:55;8.90;13.90
2945;DHT22;1482;51.398;7.128;2023-03-14T10:33:23;8.80;1.00
2945;DHT22;1482;51.398;7.128;2023-03-14T10:36:00;8.70;1.00
2945;DHT22;1482;51.398;7.128;2023-03-14T10:38:28;8.70;1.00
2945;DHT22;1482;51.398;7.128;2023-03-14T10:40:55;8.80;42.40
2945;DHT22;1482;51.398;7.128;2023-03-14T10:43:40;8.70;26.60
2945;DHT22;1482;51.398;7.128;2023-03-14T10:46:14;8.70;99.90
2945;DHT22;1482;51.398;7.128;2023-03-14T10:48:40;8.70;99.90
2945;DHT22;1482;51.398;7.128;2023-03-14T10:53:47;8.60;99.90
2945;DHT22;1482;51.398;7.128;2023-03-14T10:56:24;8.50;99.90
2945;DHT22;1482;51.398;7.128;2023-03-14T10:58:52;8.50;99.90
2945;DHT22;1482;51.398;7.128;2023-03-14T11:01:24;8.60;1.00
2945;DHT22;1482;51.398;7.128;2023-03-14T11:07:04;8.40;1.00
2945;DHT22;1482;51.398;7.128;2023-03-14T11:15:16;8.30;1.00
2945;DHT22;1482;51.398;7.128;2023-03-14T11:21:08;8.20;99.90
2945;DHT22;1482;51.398;7.128;2023-03-14T11:31:35;8.20;99.90
2945;DHT22;1482;51.398;7.128;2023-03-14T11:34:17;8.30;99.90
2945;DHT22;1482;51.398;7.128;2023-03-14T11:39:23;8.30;99.90
2945;DHT22;1482;51.398;7.128;2023-03-14T11:41:52;8.10;99.90
2945;DHT22;1482;51.398;7.128;2023-03-14T11:46:57;8.40;99.90
2945;DHT22;1482;51.398;7.128;2023-03-14T11:49:50;8.60;99.90
2945;DHT22;1482;51.398;7.128;2023-03-14T11:52:38;8.80;99.90
2945;DHT22;1482;51.398;7.128;2023-03-14T11:55:20;8.80;99.90
2945;DHT22;1482;51.398;7.128;2023-03-14T11:57:50;8.80;99.90
2945;DHT22;1482;51.398;7.128;2023-03-14T12:00:21;8.50;99.90
2945;DHT22;1482;51.398;7.128;2023-03-14T12:03:21;8.40;99.90
2945;DHT22;1482;51.398;7.128;2023-03-14T12:08:55;8.30;99.90
2945;DHT22;1482;51.398;7.128;2023-03-14T12:14:35;8.20;99.90
2945;DHT22;1482;51.398;7.128;2023-03-14T12:17:20;7.90;99.90
2945;DHT22;1482;51.398;7.128;2023-03-14T12:19:46;7.80;99.90
2945;DHT22;1482;51.398;7.128;2023-03-14T12:22:50;7.80;99.90
2945;DHT22;1482;51.398;7.128;2023-03-14T12:25:20;7.80;99.90
2945;DHT22;1482;51.398;7.128;2023-03-14T12:30:29;8.10;99.90
2945;DHT22;1482;51.398;7.128;2023-03-14T12:35:57;8.70;99.90
2945;DHT22;1482;51.398;7.128;2023-03-14T12:41:27;9.60;99.90
2945;DHT22;1482;51.398;7.128;2023-03-14T12:43:54;10.00;65.00
2945;DHT22;1482;51.398;7.128;2023-03-14T12:46:21;10.30;6.50
2945;DHT22;1482;51.398;7.128;2023-03-14T12:51:34;10.60;3.30
2945;DHT22;1482;51.398;7.128;2023-03-14T12:54:17;10.70;1.00
2945;DHT22;1482;51.398;7.128;2023-03-14T13:01:54;10.40;1.00
2945;DHT22;1482;51.398;7.128;2023-03-14T13:04:33;10.20;1.00
2945;DHT22;1482;51.398;7.128;2023-03-14T13:07:01;9.80;1.00
2945;DHT22;1482;51.398;7.128;2023-03-14T13:12:09;9.30;21.60
2945;DHT22;1482;51.398;7.128;2023-03-14T13:14:35;9.00;36.30
2945;DHT22;1482;51.398;7.128;2023-03-14T13:17:02;8.80;44.60
2945;DHT22;1482;51.398;7.128;2023-03-14T13:19:30;8.60;50.80
2945;DHT22;1482;51.398;7.128;2023-03-14T13:22:02;8.60;67.80
2945;DHT22;1482;51.398;7.128;2023-03-14T13:24:28;8.60;99.10
2945;DHT22;1482;51.398;7.128;2023-03-14T13:26:56;8.40;99.90
2945;DHT22;1482;51.398;7.128;2023-03-14T13:31:51;8.70;99.90
2945;DHT22;1482;51.398;7.128;2023-03-14T13:34:17;8.90;85.50
2945;DHT22;1482;51.398;7.128;2023-03-14T13:36:43;9.00;98.60
2945;DHT22;1482;51.398;7.128;2023-03-14T13:39:20;8.90;77.10
2945;DHT22;1482;51.398;7.128;2023-03-14T13:41:50;9.00;56.60
2945;DHT22;1482;51.398;7.128;2023-03-14T13:44:34;8.80;53.50
2945;DHT22;1482;51.398;7.128;2023-03-14T13:47:00;8.70;48.20
2945;DHT22;1482;51.398;7.128;2023-03-14T13:49:27;8.60;33.20
2945;DHT22;1482;51.398;7.128;2023-03-14T13:51:54;8.50;29.90
2945;DHT22;1482;51.398;7.128;2023-03-14T13:54:21;8.60;50.70
2945;DHT22;1482;51.398;7.128;2023-03-14T13:56:48;8.70;45.70
2945;DHT22;1482;51.398;7.128;2023-03-14T13:59:28;8.70;27.80
2945;DHT22;1482;51.398;7.128;2023-03-14T14:01:54;8.80;22.60
2945;DHT22;1482;51.398;7.128;2023-03-14T14:04:22;8.90;23.40
2945;DHT22;1482;51.398;7.128;2023-03-14T14:06:52;9.10;9.00
2945;DHT22;1482;51.398;7.128;2023-03-14T14:09:23;9.20;3.50
2945;DHT22;1482;51.398;7.128;2023-03-14T14:17:17;9.40;1.00
2945;DHT22;1482;51.398;7.128;2023-03-14T14:19:44;9.50;1.00
2945;DHT22;1482;51.398;7.128;2023-03-14T14:22:11;9.60;1.00
2945;DHT22;1482;51.398;7.128;2023-03-14T14:24:38;9.70;1.00
2945;DHT22;1482;51.398;7.128;2023-03-14T14:27:24;9.60;1.00
2945;DHT22;1482;51.398;7.128;2023-03-14T14:30:05;9.80;1.00
2945;DHT22;1482;51.398;7.128;2023-03-14T14:32:39;9.90;1.00
2945;DHT22;1482;51.398;7.128;2023-03-14T14:35:06;10.00;1.00
2945;DHT22;1482;51.398;7.128;2023-03-14T14:37:42;10.10;1.00
2945;DHT22;1482;51.398;7.128;2023-03-14T14:40:13;9.90;1.00
2945;DHT22;1482;51.398;7.128;2023-03-14T14:42:41;10.00;1.00
2945;DHT22;1482;51.398;7.128;2023-03-14T14:45:19;10.00;1.00
2945;DHT22;1482;51.398;7.128;2023-03-14T14:48:06;9.70;1.00
2945;DHT22;1482;51.398;7.128;2023-03-14T14:52:59;9.80;1.00
2945;DHT22;1482;51.398;7.128;2023-03-14T14:55:39;9.80;1.00
2945;DHT22;1482;51.398;7.128;2023-03-14T14:58:22;9.70;1.00
2945;DHT22;1482;51.398;7.128;2023-03-14T15:00:58;9.50;1.00
2945;DHT22;1482;51.398;7.128;2023-03-14T15:03:27;9.50;1.00
2945;DHT22;1482;51.398;7.128;2023-03-14T15:05:54;9.40;1.00
2945;DHT22;1482;51.398;7.128;2023-03-14T15:08:24;9.40;1.00
2945;DHT22;1482;51.398;7.128;2023-03-14T15:10:50;9.30;1.00
2945;DHT22;1482;51.398;7.128;2023-03-14T15:13:15;9.20;1.00
2945;DHT22;1482;51.398;7.128;2023-03-14T15:15:41;9.10;1.00
2945;DHT22;1482;51.398;7.128;2023-03-14T15:18:16;8.90;1.00
2945;DHT22;1482;51.398;7.128;2023-03-14T15:20:43;8.80;1.00
2945;DHT22;1482;51.398;7.128;2023-03-14T15:23:14;8.70;1.00
2945;DHT22;1482;51.398;7.128;2023-03-14T15:25:41;8.80;1.00
2945;DHT22;1482;51.398;7.128;2023-03-14T15:28:28;9.00;1.00
2945;DHT22;1482;51.398;7.128;2023-03-14T15:30:56;8.90;1.00
2945;DHT22;1482;51.398;7.128;2023-03-14T15:33:22;8.90;1.00
2945;DHT22;1482;51.398;7.128;2023-03-14T15:35:48;9.00;1.00
2945;DHT22;1482;51.398;7.128;2023-03-14T15:38:19;9.00;1.00
2945;DHT22;1482;51.398;7.128;2023-03-14T15:40:51;8.90;1.00
2945;DHT22;1482;51.398;7.128;2023-03-14T15:43:17;8.80;1.00
2945;DHT22;1482;51.398;7.128;2023-03-14T15:45:43;8.80;1.00
2945;DHT22;1482;51.398;7.128;2023-03-14T15:48:17;8.80;1.00
2945;DHT22;1482;51.398;7.128;2023-03-14T15:50:43;8.70;1.00
2945;DHT22;1482;51.398;7.128;2023-03-14T15:53:09;8.50;1.00
2945;DHT22;1482;51.398;7.128;2023-03-14T15:55:35;8.30;1.00
2945;DHT22;1482;51.398;7.128;2023-03-14T15:58:00;8.20;1.00
2945;DHT22;1482;51.398;7.128;2023-03-14T16:00:28;8.10;1.00
2945;DHT22;1482;51.398;7.128;2023-03-14T16:02:54;8.10;1.00
2945;DHT22;1482;51.398;7.128;2023-03-14T16:05:19;8.10;1.00
2945;DHT22;1482;51.398;7.128;2023-03-14T16:07:45;8.00;1.00
2945;DHT22;1482;51.398;7.128;2023-03-14T16:10:12;8.00;1.00
2945;DHT22;1482;51.398;7.128;2023-03-14T16:12:39;7.90;1.00
2945;DHT22;1482;51.398;7.128;2023-03-14T16:15:05;7.90;1.00
2945;DHT22;1482;51.398;7.128;2023-03-14T16:17:31;7.80;1.00
2945;DHT22;1482;51.398;7.128;2023-03-14T16:19:57;7.80;1.00
2945;DHT22;1482;51.398;7.128;2023-03-14T16:22:23;7.80;1.00
2945;DHT22;1482;51.398;7.128;2023-03-14T16:24:48;7.60;1.00
2945;DHT22;1482;51.398;7.128;2023-03-14T16:27:14;7.60;1.00
2945;DHT22;1482;51.398;7.128;2023-03-14T16:29:40;7.70;1.00
2945;DHT22;1482;51.398;7.128;2023-03-14T16:32:06;7.60;1.00
2945;DHT22;1482;51.398;7.128;2023-03-14T16:34:32;7.50;1.00
2945;DHT22;1482;51.398;7.128;2023-03-14T16:36:58;7.40;1.00
2945;DHT22;1482;51.398;7.128;2023-03-14T16:39:23;7.40;1.00
2945;DHT22;1482;51.398;7.128;2023-03-14T16:41:49;7.40;1.00
2945;DHT22;1482;51.398;7.128;2023-03-14T16:44:14;7.50;1.00
2945;DHT22;1482;51.398;7.128;2023-03-14T16:46:40;7.50;1.00
2945;DHT22;1482;51.398;7.128;2023-03-14T16:49:06;7.40;1.00
2945;DHT22;1482;51.398;7.128;2023-03-14T16:51:31;7.30;1.00
2945;DHT22;1482;51.398;7.128;2023-03-14T16:53:57;7.20;1.00
2945;DHT22;1482;51.398;7.128;2023-03-14T16:56:23;7.00;1.00
2945;DHT22;1482;51.398;7.128;2023-03-14T16:58:49;7.10;1.00
2945;DHT22;1482;51.398;7.128;2023-03-14T17:01:16;7.10;1.00
2945;DHT22;1482;51.398;7.128;2023-03-14T17:03:47;7.10;1.00
2945;DHT22;1482;51.398;7.128;2023-03-14T17:06:19;6.90;1.00
2945;DHT22;1482;51.398;7.128;2023-03-14T17:08:45;6.90;1.00
2945;DHT22;1482;51.398;7.128;2023-03-14T17:11:10;6.70;1.00
2945;DHT22;1482;51.398;7.128;2023-03-14T17:13:36;6.70;1.00
2945;DHT22;1482;51.398;7.128;2023-03-14T17:16:03;6.70;1.00
2945;DHT22;1482;51.398;7.128;2023-03-14T17:18:29;6.70;1.00
2945;DHT22;1482;51.398;7.128;2023-03-14T17:20:55;6.60;1.00
2945;DHT22;1482;51.398;7.128;2023-03-14T17:23:22;6.60;1.00
2945;DHT22;1482;51.398;7.128;2023-03-14T17:25:49;6.50;1.00
2945;DHT22;1482;51.398;7.128;2023-03-14T17:28:19;6.30;1.00
2945;DHT22;1482;51.398;7.128;2023-03-14T17:30:46;6.30;1.00
2945;DHT22;1482;51.398;7.128;2023-03-14T17:33:12;6.40;1.00
2945;DHT22;1482;51.398;7.128;2023-03-14T17:35:38;6.40;1.00
2945;DHT22;1482;51.398;7.128;2023-03-14T17:38:04;6.40;1.00
2945;DHT22;1482;51.398;7.128;2023-03-14T17:40:30;6.40;1.00
2945;DHT22;1482;51.398;7.128;2023-03-14T17:42:56;6.40;1.00
2945;DHT22;1482;51.398;7.128;2023-03-14T17:45:21;6.40;1.00
2945;DHT22;1482;51.398;7.128;2023-03-14T17:47:47;6.30;1.00